createdAt,value
2018-06-07T00:00:33.367Z,2.23
2018-06-07T00:03:01.768Z,1.90
2018-06-07T00:05:30.191Z,2.10
2018-06-07T00:07:58.597Z,2.30
2018-06-07T00:10:27.291Z,1.70
2018-06-07T00:12:55.778Z,2.00
2018-06-07T00:15:24.038Z,2.07
2018-06-07T00:17:52.597Z,1.70
2018-06-07T00:20:20.995Z,1.80
2018-06-07T00:22:49.109Z,1.47
2018-06-07T00:25:17.532Z,1.67
2018-06-07T00:27:46.109Z,2.00
2018-06-07T00:30:14.512Z,1.80
2018-06-07T00:32:42.745Z,1.80
2018-06-07T00:35:11.134Z,1.97
2018-06-07T00:37:40.540Z,1.83
2018-06-07T00:40:09.161Z,1.87
2018-06-07T00:42:37.641Z,1.60
2018-06-07T00:45:06.025Z,1.60
2018-06-07T00:47:34.417Z,2.00
2018-06-07T00:50:02.992Z,2.07
2018-06-07T00:52:31.449Z,1.97
2018-06-07T00:54:59.954Z,1.70
2018-06-07T00:57:28.318Z,1.53
2018-06-07T00:59:56.873Z,1.70
2018-06-07T01:02:25.529Z,1.40
2018-06-07T01:04:54.108Z,1.93
2018-06-07T01:07:22.215Z,1.97
2018-06-07T01:09:50.589Z,1.70
2018-06-07T01:12:18.980Z,1.80
2018-06-07T01:14:47.418Z,2.10
2018-06-07T01:17:15.785Z,1.80
2018-06-07T01:19:44.165Z,1.53
2018-06-07T01:22:12.607Z,1.60
2018-06-07T01:24:40.981Z,2.13
2018-06-07T01:27:09.352Z,1.70
2018-06-07T01:29:49.035Z,1.90
2018-06-07T01:33:34.110Z,1.63
2018-06-07T01:36:03.110Z,1.63
2018-06-07T01:38:43.118Z,1.70
2018-06-07T01:41:11.488Z,1.70
2018-06-07T01:43:40.606Z,1.70
2018-06-07T01:46:09.000Z,1.80
2018-06-07T01:48:37.471Z,1.70
2018-06-07T01:51:05.881Z,1.57
2018-06-07T01:53:34.587Z,1.73
2018-06-07T01:56:02.976Z,1.90
2018-06-07T01:58:31.574Z,2.00
2018-06-07T02:01:00.088Z,1.67
2018-06-07T02:03:28.517Z,1.63
2018-06-07T02:05:56.964Z,1.70
2018-06-07T02:08:25.927Z,1.80
2018-06-07T02:10:54.729Z,1.80
2018-06-07T02:13:23.146Z,1.57
2018-06-07T02:15:51.637Z,1.70
2018-06-07T02:18:19.997Z,1.70
2018-06-07T02:20:48.430Z,1.67
2018-06-07T02:23:16.842Z,1.80
2018-06-07T02:25:45.029Z,1.80
2018-06-07T02:28:14.629Z,1.50
2018-06-07T02:30:43.468Z,1.50
2018-06-07T02:33:11.937Z,1.73
2018-06-07T02:35:40.393Z,1.70
2018-06-07T02:38:09.141Z,1.70
2018-06-07T02:40:38.271Z,1.63
2018-06-07T02:43:13.120Z,1.90
2018-06-07T02:45:41.511Z,1.70
2018-06-07T02:48:09.877Z,1.57
2018-06-07T02:50:38.438Z,1.63
2018-06-07T02:53:06.804Z,1.70
2018-06-07T02:55:34.921Z,1.60
2018-06-07T02:58:03.276Z,1.80
2018-06-07T03:00:31.675Z,2.00
2018-06-07T03:03:00.123Z,1.80
2018-06-07T03:05:28.574Z,1.90
2018-06-07T03:07:56.954Z,1.80
2018-06-07T03:10:25.384Z,1.80
2018-06-07T03:12:53.793Z,1.53
2018-06-07T03:15:22.177Z,1.53
2018-06-07T03:17:50.577Z,1.80
2018-06-07T03:20:19.017Z,1.70
2018-06-07T03:22:47.401Z,1.60
2018-06-07T03:25:15.768Z,1.87
2018-06-07T03:27:44.178Z,1.70
2018-06-07T03:30:12.624Z,1.63
2018-06-07T03:32:41.709Z,1.60
2018-06-07T03:35:10.097Z,1.90
2018-06-07T03:37:38.720Z,1.80
2018-06-07T03:40:07.185Z,1.70
2018-06-07T03:42:35.594Z,1.97
2018-06-07T03:45:04.025Z,1.67
2018-06-07T03:47:32.413Z,1.70
2018-06-07T03:50:00.805Z,1.90
2018-06-07T03:52:29.183Z,1.70
2018-06-07T03:54:57.568Z,1.87
2018-06-07T03:57:25.937Z,1.70
2018-06-07T03:59:54.332Z,1.80
2018-06-07T04:02:22.729Z,1.80
2018-06-07T04:04:51.098Z,1.80
2018-06-07T04:07:19.509Z,1.90
2018-06-07T04:09:47.909Z,1.43
2018-06-07T04:12:16.270Z,1.70
2018-06-07T04:14:44.801Z,1.90
2018-06-07T04:17:13.269Z,1.73
2018-06-07T04:19:41.371Z,1.87
2018-06-07T04:22:09.820Z,1.77
2018-06-07T04:24:38.804Z,1.83
2018-06-07T04:27:07.219Z,1.73
2018-06-07T04:29:35.588Z,1.93
2018-06-07T04:32:03.980Z,1.53
2018-06-07T04:34:32.354Z,1.87
2018-06-07T04:37:00.741Z,1.90
2018-06-07T04:39:29.158Z,1.70
2018-06-07T04:41:57.629Z,2.00
2018-06-07T04:44:26.081Z,1.70
2018-06-07T04:46:54.525Z,1.53
2018-06-07T04:49:22.994Z,1.80
2018-06-07T04:51:51.386Z,1.70
2018-06-07T04:54:19.779Z,1.70
2018-06-07T04:56:48.197Z,1.70
2018-06-07T04:59:16.623Z,1.60
2018-06-07T05:01:45.025Z,1.80
2018-06-07T05:04:13.400Z,1.93
2018-06-07T05:06:42.098Z,1.57
2018-06-07T05:09:10.549Z,1.80
2018-06-07T05:11:39.210Z,1.80
2018-06-07T05:14:07.710Z,1.90
2018-06-07T05:16:36.174Z,1.60
2018-06-07T05:19:04.580Z,1.77
2018-06-07T05:21:32.988Z,1.60
2018-06-07T05:24:01.408Z,2.03
2018-06-07T05:26:29.845Z,1.70
2018-06-07T05:28:58.246Z,1.80
2018-06-07T05:31:26.648Z,1.73
2018-06-07T05:33:55.048Z,1.50
2018-06-07T05:36:23.510Z,1.67
2018-06-07T05:38:51.967Z,2.00
2018-06-07T05:41:20.352Z,1.47
2018-06-07T05:43:48.757Z,1.73
2018-06-07T05:46:17.139Z,1.60
2018-06-07T05:48:45.704Z,1.87
2018-06-07T05:51:14.097Z,1.70
2018-06-07T05:53:42.496Z,1.47
2018-06-07T05:56:11.057Z,1.73
2018-06-07T05:58:39.811Z,1.90
2018-06-07T06:01:08.334Z,1.67
2018-06-07T06:03:36.732Z,1.77
2018-06-07T06:06:05.212Z,1.40
2018-06-07T06:08:33.705Z,2.00
2018-06-07T06:11:02.169Z,1.17
2018-06-07T06:13:30.567Z,1.73
2018-06-07T06:15:58.684Z,1.47
2018-06-07T06:18:27.192Z,1.67
2018-06-07T06:20:55.610Z,1.60
2018-06-07T06:23:24.013Z,2.00
2018-06-07T06:25:52.465Z,1.60
2018-06-07T06:28:20.937Z,1.80
2018-06-07T06:30:49.749Z,1.70
2018-06-07T06:33:18.254Z,1.60
2018-06-07T06:35:46.646Z,1.80
2018-06-07T06:38:31.605Z,1.80
2018-06-07T06:41:00.696Z,1.57
2018-06-07T06:43:29.514Z,1.53
2018-06-07T06:45:57.924Z,1.23
2018-06-07T06:48:26.368Z,1.43
2018-06-07T06:50:54.754Z,1.33
2018-06-07T06:53:23.149Z,1.60
2018-06-07T06:55:51.729Z,1.50
2018-06-07T06:58:21.123Z,1.67
2018-06-07T07:00:49.616Z,1.80
2018-06-07T07:03:18.034Z,1.80
2018-06-07T07:05:46.497Z,1.60
2018-06-07T07:08:15.034Z,1.70
2018-06-07T07:10:43.716Z,1.60
2018-06-07T07:13:12.159Z,1.50
2018-06-07T07:15:40.924Z,1.70
2018-06-07T07:18:09.309Z,1.73
2018-06-07T07:20:37.763Z,1.63
2018-06-07T07:23:06.147Z,1.63
2018-06-07T07:25:34.562Z,1.80
2018-06-07T07:28:03.104Z,1.80
2018-06-07T07:30:31.580Z,1.60
2018-06-07T07:33:00.021Z,1.70
2018-06-07T07:35:28.448Z,1.43
2018-06-07T07:37:56.933Z,1.60
2018-06-07T07:40:25.391Z,1.50
2018-06-07T07:42:53.844Z,1.77
2018-06-07T07:45:22.292Z,1.67
2018-06-07T07:47:50.733Z,1.63
2018-06-07T07:50:19.209Z,1.70
2018-06-07T07:52:47.596Z,1.83
2018-06-07T07:55:16.110Z,1.70
2018-06-07T07:57:44.505Z,1.70
2018-06-07T08:00:12.961Z,1.80
2018-06-07T08:02:41.544Z,1.73
2018-06-07T08:05:10.015Z,1.57
2018-06-07T08:07:39.803Z,1.60
2018-06-07T08:10:08.236Z,1.40
2018-06-07T08:12:36.605Z,1.60
2018-06-07T08:15:05.016Z,1.53
2018-06-07T08:17:33.500Z,1.50
2018-06-07T08:20:01.996Z,1.80
2018-06-07T08:22:30.446Z,1.67
2018-06-07T08:24:58.837Z,1.90
2018-06-07T08:27:27.308Z,1.60
2018-06-07T08:29:55.775Z,1.70
2018-06-07T08:32:24.284Z,1.70
2018-06-07T08:34:52.704Z,1.40
2018-06-07T08:37:21.068Z,1.63
2018-06-07T08:39:49.493Z,2.10
2018-06-07T08:42:17.878Z,1.60
2018-06-07T08:44:46.289Z,1.70
2018-06-07T08:47:14.708Z,1.83
2018-06-07T08:49:43.121Z,1.60
2018-06-07T08:52:11.521Z,1.57
2018-06-07T08:54:44.356Z,1.70
2018-06-07T08:57:12.832Z,1.80
2018-06-07T08:59:41.211Z,1.43
2018-06-07T09:02:09.600Z,1.50
2018-06-07T09:04:38.048Z,1.60
2018-06-07T09:07:06.501Z,1.50
2018-06-07T09:09:34.921Z,1.70
2018-06-07T09:12:03.562Z,1.60
2018-06-07T09:14:31.989Z,1.43
2018-06-07T09:17:00.532Z,1.57
2018-06-07T09:19:28.939Z,1.73
2018-06-07T09:21:57.359Z,1.90
2018-06-07T09:24:25.789Z,1.70
2018-06-07T09:26:54.200Z,1.90
2018-06-07T09:29:22.608Z,1.70
2018-06-07T09:31:51.021Z,1.90
2018-06-07T09:34:19.457Z,1.87
2018-06-07T09:36:47.897Z,1.47
2018-06-07T09:39:16.343Z,1.60
2018-06-07T09:41:44.741Z,1.60
2018-06-07T09:44:13.388Z,1.60
2018-06-07T09:46:41.929Z,1.97
2018-06-07T09:49:10.357Z,2.03
2018-06-07T09:51:39.271Z,1.70
2018-06-07T09:54:07.683Z,1.60
2018-06-07T09:56:36.129Z,1.77
2018-06-07T09:59:04.520Z,1.67
2018-06-07T10:01:33.065Z,1.80
2018-06-07T10:04:01.477Z,2.00
2018-06-07T10:06:30.028Z,1.60
2018-06-07T10:08:58.448Z,1.87
2018-06-07T10:11:26.849Z,1.67
2018-06-07T10:13:55.241Z,1.90
2018-06-07T10:16:23.629Z,1.70
2018-06-07T10:18:52.013Z,1.77
2018-06-07T10:21:20.429Z,1.80
2018-06-07T10:23:48.813Z,1.70
2018-06-07T10:26:17.240Z,1.60
2018-06-07T10:28:45.909Z,1.67
2018-06-07T10:31:14.303Z,1.80
2018-06-07T10:33:42.766Z,1.60
2018-06-07T10:36:11.311Z,1.60
2018-06-07T10:38:40.528Z,1.80
2018-06-07T10:41:09.104Z,1.50
2018-06-07T10:43:37.804Z,1.63
2018-06-07T10:46:06.200Z,1.70
2018-06-07T10:48:34.616Z,1.30
2018-06-07T10:51:03.011Z,1.63
2018-06-07T10:53:31.444Z,1.93
2018-06-07T10:55:59.837Z,1.80
2018-06-07T10:58:28.205Z,1.60
2018-06-07T11:00:56.564Z,1.70
2018-06-07T11:03:25.004Z,1.93
2018-06-07T11:05:53.416Z,1.83
2018-06-07T11:08:22.144Z,1.70
2018-06-07T11:10:50.661Z,1.63
2018-06-07T11:13:19.198Z,1.43
2018-06-07T11:15:47.800Z,1.57
2018-06-07T11:18:16.195Z,1.47
2018-06-07T11:20:44.580Z,1.83
2018-06-07T11:23:13.113Z,1.90
2018-06-07T11:25:41.743Z,1.73
2018-06-07T11:28:10.017Z,1.77
2018-06-07T11:30:38.572Z,1.87
2018-06-07T11:33:07.078Z,1.70
2018-06-07T11:35:35.464Z,2.00
2018-06-07T11:38:03.852Z,1.60
2018-06-07T11:40:32.328Z,2.03
2018-06-07T11:43:00.721Z,1.60
2018-06-07T11:45:29.070Z,1.60
2018-06-07T11:47:57.472Z,1.63
2018-06-07T11:50:25.913Z,1.93
2018-06-07T11:52:54.308Z,1.93
2018-06-07T11:55:22.700Z,1.70
2018-06-07T11:57:51.096Z,1.67
2018-06-07T12:00:19.477Z,1.70
2018-06-07T12:02:47.899Z,1.43
2018-06-07T12:05:16.305Z,1.50
2018-06-07T12:07:44.871Z,1.70
2018-06-07T12:10:13.388Z,1.47
2018-06-07T12:12:41.801Z,1.70
2018-06-07T12:15:10.583Z,1.37
2018-06-07T12:17:41.875Z,1.60
2018-06-07T12:20:12.224Z,1.63
2018-06-07T12:22:40.785Z,2.17
2018-06-07T12:25:09.204Z,1.80
2018-06-07T12:27:37.868Z,2.43
2018-06-07T12:30:06.365Z,1.80
2018-06-07T12:32:35.356Z,1.57
2018-06-07T12:35:05.632Z,1.47
2018-06-07T12:37:34.252Z,1.87
2018-06-07T12:40:03.000Z,1.70
2018-06-07T12:42:31.822Z,1.80
2018-06-07T12:45:00.533Z,3.10
2018-06-07T12:47:29.180Z,2.87
2018-06-07T12:49:58.113Z,1.83
2018-06-07T12:52:26.570Z,2.20
2018-06-07T12:54:55.091Z,1.70
2018-06-07T12:57:23.644Z,1.70
2018-06-07T12:59:52.160Z,1.77
2018-06-07T13:02:20.725Z,1.70
2018-06-07T13:04:49.331Z,1.47
2018-06-07T13:07:18.017Z,1.97
2018-06-07T13:09:46.620Z,1.87
2018-06-07T13:12:15.160Z,1.80
2018-06-07T13:14:49.292Z,1.70
2018-06-07T13:17:17.674Z,1.63
2018-06-07T13:19:46.144Z,1.90
2018-06-07T13:22:14.303Z,1.87
2018-06-07T13:24:42.711Z,1.80
2018-06-07T13:27:11.894Z,1.63
2018-06-07T13:29:40.475Z,1.83
2018-06-07T13:32:10.500Z,1.70
2018-06-07T13:34:39.284Z,1.80
2018-06-07T13:37:07.928Z,1.80
2018-06-07T13:39:37.649Z,1.87
2018-06-07T13:44:15.923Z,2.00
2018-06-07T13:46:44.308Z,2.60
2018-06-07T13:49:12.825Z,2.30
2018-06-07T13:51:41.300Z,2.70
2018-06-07T13:54:09.869Z,2.30
2018-06-07T13:56:38.948Z,2.40
2018-06-07T13:59:07.629Z,2.70
2018-06-07T14:01:36.364Z,2.37
2018-06-07T14:04:04.760Z,2.30
2018-06-07T14:06:33.278Z,2.17
2018-06-07T14:09:01.845Z,2.70
2018-06-07T14:11:30.245Z,2.30
2018-06-07T14:13:58.676Z,2.30
2018-06-07T14:16:27.055Z,2.37
2018-06-07T14:18:55.588Z,2.50
2018-06-07T14:21:24.252Z,2.30
2018-06-07T14:23:52.720Z,2.07
2018-06-07T14:26:21.098Z,1.97
2018-06-07T14:28:49.530Z,2.50
2018-06-07T14:31:18.225Z,1.97
2018-06-07T14:33:46.663Z,2.33
2018-06-07T14:36:15.477Z,2.30
2018-06-07T14:38:43.914Z,2.33
2018-06-07T14:41:12.393Z,1.97
2018-06-07T14:43:41.418Z,2.20
2018-06-07T14:46:09.591Z,3.13
2018-06-07T14:48:38.343Z,2.10
2018-06-07T14:51:06.834Z,2.30
2018-06-07T14:53:35.276Z,2.20
2018-06-07T14:56:03.709Z,2.20
2018-06-07T14:58:32.099Z,3.10
2018-06-07T15:01:00.519Z,1.97
2018-06-07T15:03:29.094Z,2.33
2018-06-07T15:05:57.662Z,2.17
2018-06-07T15:08:26.196Z,2.33
2018-06-07T15:10:54.784Z,1.97
2018-06-07T15:13:23.257Z,1.97
2018-06-07T15:15:52.050Z,2.20
2018-06-07T15:18:20.664Z,2.23
2018-06-07T15:20:48.967Z,2.10
2018-06-07T15:23:17.477Z,2.10
2018-06-07T15:25:45.940Z,2.10
2018-06-07T15:28:14.353Z,2.30
2018-06-07T15:30:42.827Z,2.10
2018-06-07T15:33:11.252Z,2.50
2018-06-07T15:38:38.243Z,2.27
2018-06-07T15:41:07.174Z,2.27
2018-06-07T15:43:35.591Z,1.90
2018-06-07T15:46:04.001Z,2.27
2018-06-07T15:48:32.478Z,2.70
2018-06-07T15:51:01.084Z,2.70
2018-06-07T15:53:29.536Z,2.00
2018-06-07T15:55:58.425Z,2.20
2018-06-07T15:58:26.831Z,2.03
2018-06-07T16:00:55.306Z,1.87
2018-06-07T16:03:23.801Z,2.00
2018-06-07T16:05:53.035Z,2.70
2018-06-07T16:08:21.528Z,2.07
2018-06-07T16:10:49.925Z,2.30
2018-06-07T16:13:18.328Z,2.20
2018-06-07T16:15:46.712Z,2.30
2018-06-07T16:18:15.249Z,2.30
2018-06-07T16:20:43.643Z,1.83
2018-06-07T16:23:12.072Z,2.47
2018-06-07T16:25:41.834Z,2.20
2018-06-07T16:28:10.213Z,2.20
2018-06-07T16:30:38.981Z,2.30
2018-06-07T16:33:07.480Z,2.57
2018-06-07T16:35:35.888Z,2.00
2018-06-07T16:38:04.273Z,2.17
2018-06-07T16:40:32.666Z,2.10
2018-06-07T16:43:01.105Z,2.50
2018-06-07T16:45:29.492Z,2.67
2018-06-07T16:47:57.914Z,2.37
2018-06-07T16:50:26.336Z,2.60
2018-06-07T16:52:54.709Z,2.10
2018-06-07T16:55:23.096Z,2.30
2018-06-07T16:57:51.480Z,2.30
2018-06-07T17:00:19.940Z,2.13
2018-06-07T17:02:48.311Z,2.10
2018-06-07T17:05:16.749Z,2.33
2018-06-07T17:07:45.227Z,1.93
2018-06-07T17:10:13.674Z,2.27
2018-06-07T17:12:42.935Z,2.70
2018-06-07T17:15:12.318Z,2.20
2018-06-07T17:17:42.910Z,2.40
2018-06-07T17:20:11.843Z,2.33
2018-06-07T17:22:40.013Z,2.60
2018-06-07T17:25:08.421Z,2.67
2018-06-07T17:27:36.844Z,2.57
2018-06-07T17:30:05.489Z,2.83
2018-06-07T17:32:37.185Z,2.23
2018-06-07T17:35:05.689Z,2.60
2018-06-07T17:37:34.206Z,2.30
2018-06-07T17:40:02.709Z,2.53
2018-06-07T17:42:31.101Z,3.03
2018-06-07T17:44:59.516Z,2.87
2018-06-07T17:47:28.024Z,2.93
2018-06-07T17:49:56.420Z,2.73
2018-06-07T17:52:27.796Z,2.37
2018-06-07T17:54:56.513Z,2.43
2018-06-07T17:57:25.168Z,2.47
2018-06-07T17:59:53.681Z,2.63
2018-06-07T18:02:22.771Z,2.50
2018-06-07T18:04:51.151Z,2.60
2018-06-07T18:07:19.622Z,2.47
2018-06-07T18:09:47.973Z,2.20
2018-06-07T18:12:16.404Z,2.20
2018-06-07T18:14:44.789Z,2.73
2018-06-07T18:17:13.452Z,2.03
2018-06-07T18:19:42.049Z,2.60
2018-06-07T18:22:10.570Z,2.80
2018-06-07T18:24:40.208Z,2.70
2018-06-07T18:27:08.668Z,2.60
2018-06-07T18:29:37.311Z,2.47
2018-06-07T18:32:05.738Z,2.40
2018-06-07T18:34:34.133Z,2.40
2018-06-07T18:37:04.904Z,2.60
2018-06-07T18:39:33.376Z,2.23
2018-06-07T18:42:01.841Z,2.97
2018-06-07T18:44:30.347Z,2.43
2018-06-07T18:46:58.718Z,2.50
2018-06-07T18:49:27.072Z,2.47
2018-06-07T18:51:55.456Z,2.30
2018-06-07T18:54:23.846Z,2.57
2018-06-07T18:56:52.237Z,2.17
2018-06-07T18:59:20.613Z,2.80
2018-06-07T19:01:48.996Z,2.77
2018-06-07T19:04:17.352Z,2.27
2018-06-07T19:06:45.768Z,2.30
2018-06-07T19:09:19.468Z,2.23
2018-06-07T19:11:47.955Z,2.20
2018-06-07T19:14:21.628Z,2.67
2018-06-07T19:16:50.012Z,2.17
2018-06-07T19:19:23.924Z,2.30
2018-06-07T19:21:52.284Z,2.37
2018-06-07T19:24:20.713Z,2.40
2018-06-07T19:26:54.602Z,2.53
2018-06-07T19:29:23.111Z,2.63
2018-06-07T19:31:57.073Z,2.20
2018-06-07T19:34:30.801Z,2.40
2018-06-07T19:36:59.506Z,2.20
2018-06-07T19:39:33.491Z,2.40
2018-06-07T19:42:07.680Z,2.50
2018-06-07T19:44:36.254Z,2.23
2018-06-07T19:47:04.953Z,2.40
2018-06-07T19:49:33.465Z,2.57
2018-06-07T19:52:01.876Z,2.43
2018-06-07T19:54:30.327Z,2.10
2018-06-07T19:56:58.764Z,2.10
2018-06-07T19:59:27.119Z,2.43
2018-06-07T20:01:55.514Z,2.30
2018-06-07T20:04:24.572Z,2.37
2018-06-07T20:06:52.976Z,2.07
2018-06-07T20:09:21.420Z,2.53
2018-06-07T20:11:49.809Z,2.60
2018-06-07T20:14:18.240Z,2.53
2018-06-07T20:16:46.597Z,2.20
2018-06-07T20:19:14.992Z,2.10
2018-06-07T20:21:43.389Z,2.10
2018-06-07T20:24:11.573Z,2.40
2018-06-07T20:26:40.660Z,2.10
2018-06-07T20:29:09.680Z,2.30
2018-06-07T20:31:38.198Z,2.37
2018-06-07T20:34:06.596Z,2.20
2018-06-07T20:36:35.162Z,2.43
2018-06-07T20:39:04.615Z,2.67
2018-06-07T20:41:32.972Z,2.00
2018-06-07T20:44:01.461Z,2.40
2018-06-07T20:46:29.932Z,2.30
2018-06-07T20:48:58.312Z,2.03
2018-06-07T20:51:26.849Z,2.23
2018-06-07T20:53:55.069Z,2.40
2018-06-07T20:56:23.488Z,2.20
2018-06-07T20:58:51.877Z,2.30
2018-06-07T21:01:20.328Z,2.17
2018-06-07T21:03:48.702Z,2.40
2018-06-07T21:06:17.113Z,2.13
2018-06-07T21:08:45.516Z,2.60
2018-06-07T21:11:13.985Z,2.23
2018-06-07T21:13:42.456Z,2.20
2018-06-07T21:16:10.623Z,2.27
2018-06-07T21:18:40.498Z,2.80
2018-06-07T21:21:08.912Z,2.03
2018-06-07T21:23:37.664Z,2.40
2018-06-07T21:26:06.045Z,2.20
2018-06-07T21:28:34.428Z,2.10
2018-06-07T21:31:09.351Z,2.00
2018-06-07T21:33:38.873Z,2.03
2018-06-07T21:36:07.230Z,2.20
2018-06-07T21:38:35.665Z,2.03
2018-06-07T21:41:04.033Z,2.20
2018-06-07T21:43:32.436Z,2.20
2018-06-07T21:46:00.813Z,2.03
2018-06-07T21:48:29.180Z,2.57
2018-06-07T21:50:57.548Z,2.50
2018-06-07T21:53:25.924Z,2.07
2018-06-07T21:55:54.349Z,2.13
2018-06-07T21:58:22.704Z,1.70
2018-06-07T22:00:51.096Z,2.17
2018-06-07T22:03:19.557Z,2.00
2018-06-07T22:05:47.996Z,2.30
2018-06-07T22:08:16.386Z,2.00
2018-06-07T22:10:44.748Z,2.20
2018-06-07T22:13:13.185Z,2.30
2018-06-07T22:15:41.320Z,2.30
2018-06-07T22:18:09.729Z,2.43
2018-06-07T22:20:38.301Z,1.90
2018-06-07T22:23:06.840Z,1.80
2018-06-07T22:25:35.214Z,1.90
2018-06-07T22:28:03.573Z,1.80
2018-06-07T22:30:31.968Z,2.30
2018-06-07T22:33:00.331Z,1.93
2018-06-07T22:35:28.676Z,2.00
2018-06-07T22:37:57.145Z,2.00
2018-06-07T22:40:25.672Z,2.53
2018-06-07T22:42:54.273Z,1.80
2018-06-07T22:45:22.665Z,2.13
2018-06-07T22:47:51.041Z,2.10
2018-06-07T22:50:19.464Z,2.27
2018-06-07T22:52:48.370Z,1.83
2018-06-07T22:55:16.892Z,2.17
2018-06-07T22:57:45.324Z,1.90
2018-06-07T23:00:14.269Z,2.10
2018-06-07T23:02:48.804Z,1.97
2018-06-07T23:05:17.220Z,2.20
2018-06-07T23:07:45.645Z,2.50
2018-06-07T23:10:14.168Z,2.13
2018-06-07T23:12:42.549Z,2.37
2018-06-07T23:15:10.961Z,2.40
2018-06-07T23:17:39.579Z,2.23
2018-06-07T23:20:07.972Z,1.90
2018-06-07T23:22:36.384Z,1.97
2018-06-07T23:25:04.825Z,1.93
2018-06-07T23:27:33.236Z,1.93
2018-06-07T23:30:01.768Z,2.10
2018-06-07T23:32:30.133Z,2.00
2018-06-07T23:34:58.631Z,1.97
2018-06-07T23:37:27.080Z,2.27
2018-06-07T23:39:55.640Z,2.47
2018-06-07T23:42:23.989Z,2.03
2018-06-07T23:44:52.422Z,1.93
2018-06-07T23:47:20.780Z,2.07
2018-06-07T23:49:49.144Z,2.40
2018-06-07T23:52:17.552Z,2.13
2018-06-07T23:54:46.084Z,2.40
2018-06-07T23:57:14.461Z,1.93
2018-06-07T23:59:42.864Z,1.90
